createdAt,value
2022-11-08T00:03:50.252Z,2.00
2022-11-08T00:08:12.930Z,2.70
2022-11-08T00:12:34.522Z,2.22
2022-11-08T00:16:38.052Z,1.90
2022-11-08T00:20:41.751Z,1.50
2022-11-08T00:24:46.950Z,1.50
2022-11-08T00:28:50.482Z,1.27
2022-11-08T00:32:54.108Z,1.10
2022-11-08T00:36:57.670Z,1.30
2022-11-08T00:41:02.187Z,2.38
2022-11-08T00:45:06.579Z,1.90
2022-11-08T00:49:10.296Z,1.10
2022-11-08T00:53:13.801Z,1.77
2022-11-08T00:57:20.464Z,1.50
2022-11-08T01:01:26.049Z,1.10
2022-11-08T01:05:29.759Z,1.40
2022-11-08T01:09:34.231Z,1.35
2022-11-08T01:13:39.190Z,1.40
2022-11-08T01:17:42.854Z,1.65
2022-11-08T01:21:45.970Z,1.40
2022-11-08T01:25:50.376Z,1.67
2022-11-08T01:29:55.226Z,1.20
2022-11-08T01:33:59.425Z,1.13
2022-11-08T01:38:03.564Z,1.38
2022-11-08T01:42:06.775Z,1.13
2022-11-08T01:46:40.717Z,1.05
2022-11-08T01:50:44.428Z,0.52
2022-11-08T01:54:53.729Z,0.90
2022-11-08T01:58:59.844Z,1.17
2022-11-08T02:03:06.767Z,1.52
2022-11-08T02:07:13.986Z,0.88
2022-11-08T02:11:19.261Z,1.00
2022-11-08T02:15:25.531Z,1.23
2022-11-08T02:19:38.978Z,1.40
2022-11-08T02:23:46.898Z,1.60
2022-11-08T02:27:50.399Z,1.27
2022-11-08T02:31:54.253Z,2.05
2022-11-08T02:35:58.993Z,3.00
2022-11-08T02:40:04.346Z,2.42
2022-11-08T02:44:07.348Z,3.28
2022-11-08T02:48:11.409Z,3.03
2022-11-08T02:52:15.146Z,3.47
2022-11-08T02:56:20.290Z,2.17
2022-11-08T03:00:24.191Z,2.97
2022-11-08T03:04:27.206Z,2.00
2022-11-08T03:08:30.722Z,2.22
2022-11-08T03:12:35.642Z,1.35
2022-11-08T03:16:39.245Z,2.45
2022-11-08T03:20:42.296Z,2.72
2022-11-08T03:24:45.800Z,1.90
2022-11-08T03:28:50.695Z,1.92
2022-11-08T03:32:54.408Z,1.83
2022-11-08T03:36:58.177Z,1.77
2022-11-08T03:41:01.219Z,2.10
2022-11-08T03:45:06.622Z,2.90
2022-11-08T03:49:10.508Z,3.97
2022-11-08T03:53:14.054Z,3.03
2022-11-08T03:57:17.575Z,3.33
2022-11-08T04:01:22.097Z,2.90
2022-11-08T04:05:25.825Z,2.90
2022-11-08T04:09:29.265Z,2.45
2022-11-08T04:13:50.189Z,2.70
2022-11-08T04:18:11.060Z,2.65
2022-11-08T04:22:14.554Z,2.42
2022-11-08T04:26:18.985Z,3.10
2022-11-08T04:30:22.449Z,8.63
2022-11-08T04:34:27.392Z,3.80
2022-11-08T04:38:31.923Z,4.35
2022-11-08T04:42:35.432Z,3.30
2022-11-08T04:46:38.945Z,3.83
2022-11-08T04:50:44.094Z,4.63
2022-11-08T04:54:48.113Z,5.07
2022-11-08T05:03:03.206Z,3.17
2022-11-08T05:07:08.295Z,2.50
2022-11-08T05:11:13.868Z,3.53
2022-11-08T05:15:17.841Z,3.88
2022-11-08T05:19:42.356Z,2.58
2022-11-08T05:23:46.907Z,3.85
2022-11-08T05:27:50.526Z,2.90
2022-11-08T05:31:53.839Z,2.55
2022-11-08T05:36:00.072Z,1.40
2022-11-08T05:40:09.558Z,1.63
2022-11-08T05:44:13.139Z,2.40
2022-11-08T05:48:17.334Z,3.30
2022-11-08T05:52:21.005Z,3.00
2022-11-08T05:56:25.639Z,2.45
2022-11-08T06:00:29.982Z,1.70
2022-11-08T06:04:33.782Z,2.50
2022-11-08T06:08:38.331Z,2.10
2022-11-08T06:12:43.002Z,1.40
2022-11-08T06:16:46.520Z,1.90
2022-11-08T06:20:49.468Z,2.33
2022-11-08T06:24:52.824Z,1.83
2022-11-08T06:28:57.910Z,1.55
2022-11-08T06:33:01.782Z,1.60
2022-11-08T06:37:05.701Z,1.65
2022-11-08T06:41:08.937Z,1.95
2022-11-08T06:45:14.515Z,1.35
2022-11-08T06:49:18.142Z,1.83
2022-11-08T06:53:22.058Z,2.10
2022-11-08T06:57:25.603Z,1.58
2022-11-08T07:01:30.199Z,1.50
2022-11-08T07:05:36.501Z,1.88
2022-11-08T07:09:40.388Z,1.92
2022-11-08T07:13:43.867Z,2.10
2022-11-08T07:17:50.655Z,2.05
2022-11-08T07:21:54.074Z,3.08
2022-11-08T07:25:57.582Z,3.05
2022-11-08T07:30:01.658Z,2.47
2022-11-08T07:34:06.460Z,2.90
2022-11-08T07:38:09.962Z,2.13
2022-11-08T07:42:13.068Z,2.50
2022-11-08T07:46:16.553Z,2.55
2022-11-08T07:50:22.399Z,1.67
2022-11-08T07:54:25.770Z,1.92
2022-11-08T07:58:29.323Z,2.20
2022-11-08T08:02:33.081Z,3.33
2022-11-08T08:06:37.532Z,2.80
2022-11-08T08:15:06.317Z,2.30
2022-11-08T08:19:09.431Z,1.75
2022-11-08T08:23:14.371Z,2.95
2022-11-08T08:27:18.057Z,2.88
2022-11-08T08:31:21.686Z,2.67
2022-11-08T08:35:25.109Z,3.92
2022-11-08T08:39:29.776Z,3.50
2022-11-08T08:43:34.153Z,3.67
2022-11-08T08:47:37.613Z,2.40
2022-11-08T08:51:41.182Z,2.22
2022-11-08T08:55:46.426Z,1.65
2022-11-08T09:04:13.157Z,1.52
2022-11-08T09:08:16.664Z,2.85
2022-11-08T09:12:21.606Z,2.00
2022-11-08T09:16:25.020Z,2.47
2022-11-08T09:20:28.048Z,2.17
2022-11-08T09:24:31.575Z,1.50
2022-11-08T09:28:37.467Z,1.75
2022-11-08T09:37:04.695Z,1.88
2022-11-08T09:41:23.055Z,1.67
2022-11-08T09:45:32.593Z,2.08
2022-11-08T09:49:42.353Z,2.17
2022-11-08T09:53:51.884Z,1.42
2022-11-08T09:58:07.069Z,1.40
2022-11-08T10:02:19.219Z,1.75
2022-11-08T10:06:46.947Z,2.08
2022-11-08T10:11:13.386Z,1.88
2022-11-08T10:15:25.731Z,1.75
2022-11-08T10:19:48.241Z,1.60
2022-11-08T10:23:59.401Z,2.08
2022-11-08T10:28:05.466Z,1.55
2022-11-08T10:32:16.895Z,1.50
2022-11-08T10:36:28.050Z,2.13
2022-11-08T10:40:41.659Z,1.90
2022-11-08T10:44:45.557Z,1.30
2022-11-08T10:48:49.176Z,1.60
2022-11-08T10:53:01.947Z,1.42
2022-11-08T10:57:05.662Z,1.58
2022-11-08T11:01:19.357Z,1.80
2022-11-08T11:05:28.704Z,1.60
2022-11-08T11:09:33.623Z,1.83
2022-11-08T11:13:37.096Z,1.90
2022-11-08T11:17:40.418Z,1.50
2022-11-08T11:21:46.205Z,2.03
2022-11-08T11:25:54.074Z,2.47
2022-11-08T11:30:23.751Z,2.35
2022-11-08T11:34:36.567Z,2.83
2022-11-08T11:38:47.211Z,2.25
2022-11-08T11:43:01.849Z,1.73
2022-11-08T11:47:14.547Z,2.40
2022-11-08T11:51:18.381Z,2.35
2022-11-08T11:55:25.912Z,3.03
2022-11-08T11:59:54.400Z,2.67
2022-11-08T12:04:26.782Z,2.85
2022-11-08T12:08:41.676Z,3.73
2022-11-08T12:12:58.192Z,3.20
2022-11-08T12:17:17.936Z,4.10
2022-11-08T12:21:32.041Z,3.38
2022-11-08T12:25:42.157Z,3.95
2022-11-08T12:29:53.582Z,3.50
2022-11-08T12:34:12.927Z,3.95
2022-11-08T12:38:26.110Z,4.10
2022-11-08T12:42:58.606Z,4.35
2022-11-08T12:47:15.132Z,4.43
2022-11-08T12:51:27.692Z,4.97
2022-11-08T12:55:35.940Z,4.80
2022-11-08T12:59:44.031Z,4.90
2022-11-08T13:04:20.764Z,5.18
2022-11-08T13:08:33.079Z,4.65
2022-11-08T13:13:05.317Z,4.67
2022-11-08T13:17:17.675Z,3.90
2022-11-08T13:21:38.579Z,4.40
2022-11-08T13:25:45.737Z,4.88
2022-11-08T13:29:48.867Z,5.35
2022-11-08T13:34:07.494Z,3.90
2022-11-08T13:38:24.521Z,4.35
2022-11-08T13:42:58.976Z,4.30
2022-11-08T13:47:02.533Z,4.30
2022-11-08T13:51:26.269Z,4.47
2022-11-08T13:55:49.729Z,4.30
2022-11-08T13:59:59.031Z,3.95
2022-11-08T14:04:03.044Z,3.88
2022-11-08T14:08:17.691Z,3.72
2022-11-08T14:12:27.574Z,3.85
2022-11-08T14:16:40.373Z,4.00
2022-11-08T14:20:46.412Z,3.30
2022-11-08T14:24:53.810Z,3.90
2022-11-08T14:29:01.412Z,4.38
2022-11-08T14:33:18.638Z,4.38
2022-11-08T14:37:26.870Z,4.20
2022-11-08T14:41:32.557Z,5.28
2022-11-08T14:45:35.636Z,4.32
2022-11-08T14:49:40.387Z,4.82
2022-11-08T14:53:47.475Z,3.55
2022-11-08T14:57:51.043Z,5.63
2022-11-08T15:01:54.228Z,5.65
2022-11-08T15:06:01.944Z,4.65
2022-11-08T15:10:10.358Z,5.38
2022-11-08T15:14:21.484Z,5.43
2022-11-08T15:18:28.720Z,5.88
2022-11-08T15:22:34.604Z,6.70
2022-11-08T15:26:38.978Z,6.28
2022-11-08T15:30:44.793Z,6.65
2022-11-08T15:34:49.430Z,7.10
2022-11-08T15:38:53.931Z,6.20
2022-11-08T15:42:58.085Z,7.35
2022-11-08T15:47:01.709Z,6.05
2022-11-08T15:51:06.387Z,7.70
2022-11-08T15:55:16.393Z,7.35
2022-11-08T15:59:22.175Z,9.00
2022-11-08T16:03:25.777Z,8.57
2022-11-08T16:07:28.831Z,7.45
2022-11-08T16:11:34.371Z,7.88
2022-11-08T16:15:39.159Z,8.35
2022-11-08T16:19:42.266Z,7.10
2022-11-08T16:24:06.788Z,7.95
2022-11-08T16:28:21.159Z,8.80
2022-11-08T16:32:24.439Z,8.40
2022-11-08T16:36:28.744Z,7.15
2022-11-08T16:40:32.375Z,8.45
2022-11-08T16:44:38.093Z,6.78
2022-11-08T16:48:46.056Z,7.75
2022-11-08T16:52:49.520Z,7.75
2022-11-08T16:57:03.445Z,8.82
2022-11-08T17:01:16.393Z,8.32
2022-11-08T17:05:22.214Z,10.07
2022-11-08T17:09:25.789Z,8.10
2022-11-08T17:13:29.152Z,7.90
2022-11-08T17:17:33.610Z,7.78
2022-11-08T17:21:45.701Z,8.95
2022-11-08T17:25:49.362Z,7.28
2022-11-08T17:29:52.771Z,8.45
2022-11-08T17:33:57.529Z,7.55
2022-11-08T17:38:00.601Z,7.57
2022-11-08T17:42:04.135Z,7.28
2022-11-08T17:46:08.026Z,8.80
2022-11-08T17:50:12.771Z,9.90
2022-11-08T17:54:16.544Z,7.75
2022-11-08T17:58:19.792Z,9.10
2022-11-08T18:02:23.929Z,8.68
2022-11-08T18:06:29.671Z,9.57
2022-11-08T18:10:37.421Z,9.45
2022-11-08T18:14:40.699Z,7.85
2022-11-08T18:18:46.665Z,8.95
2022-11-08T18:22:58.444Z,8.98
2022-11-08T18:27:02.194Z,9.18
2022-11-08T18:31:08.135Z,9.27
2022-11-08T18:35:13.796Z,9.27
2022-11-08T18:39:19.663Z,8.80
2022-11-08T18:43:23.551Z,8.68
2022-11-08T18:47:28.586Z,8.07
2022-11-08T18:51:32.490Z,7.45
2022-11-08T18:55:36.920Z,9.07
2022-11-08T18:59:40.149Z,7.25
2022-11-08T19:03:44.846Z,8.23
2022-11-08T19:07:48.334Z,8.75
2022-11-08T19:11:53.767Z,8.38
2022-11-08T19:15:57.687Z,9.43
2022-11-08T19:20:00.766Z,8.65
2022-11-08T19:24:09.164Z,7.60
2022-11-08T19:28:13.976Z,7.78
2022-11-08T19:32:17.374Z,8.85
2022-11-08T19:36:22.816Z,7.28
2022-11-08T19:40:31.898Z,8.80
2022-11-08T19:44:37.334Z,10.32
2022-11-08T19:48:43.841Z,8.90
2022-11-08T19:52:46.846Z,9.52
2022-11-08T19:57:04.211Z,9.77
2022-11-08T20:01:16.917Z,9.70
2022-11-08T20:05:22.391Z,9.73
2022-11-08T20:09:30.249Z,8.93
2022-11-08T20:13:36.944Z,9.57
2022-11-08T20:17:43.373Z,8.30
2022-11-08T20:21:47.952Z,9.82
2022-11-08T20:25:52.359Z,9.30
2022-11-08T20:29:55.933Z,9.57
2022-11-08T20:34:02.918Z,9.68
2022-11-08T20:38:06.645Z,9.80
2022-11-08T20:42:10.559Z,9.27
2022-11-08T20:46:15.970Z,10.82
2022-11-08T20:50:20.441Z,8.07
2022-11-08T20:54:24.176Z,9.25
2022-11-08T20:58:29.664Z,10.40
2022-11-08T21:02:32.838Z,9.43
2022-11-08T21:06:38.302Z,8.18
2022-11-08T21:10:43.825Z,8.32
2022-11-08T21:14:47.261Z,9.43
2022-11-08T21:18:51.314Z,8.73
2022-11-08T21:22:56.547Z,8.57
2022-11-08T21:26:59.717Z,8.63
2022-11-08T21:31:03.607Z,9.55
2022-11-08T21:35:09.753Z,10.18
2022-11-08T21:39:14.442Z,9.15
2022-11-08T21:43:18.532Z,8.80
2022-11-08T21:47:21.915Z,9.45
2022-11-08T21:51:26.175Z,8.07
2022-11-08T21:55:32.945Z,7.63
2022-11-08T21:59:36.047Z,7.07
2022-11-08T22:03:39.892Z,8.50
2022-11-08T22:07:43.577Z,7.80
2022-11-08T22:11:47.980Z,6.40
2022-11-08T22:15:51.543Z,7.75
2022-11-08T22:19:55.312Z,8.20
2022-11-08T22:23:58.348Z,8.23
2022-11-08T22:28:03.505Z,8.48
2022-11-08T22:32:07.699Z,9.48
2022-11-08T22:36:11.886Z,8.20
2022-11-08T22:40:17.135Z,6.47
2022-11-08T22:44:22.361Z,6.88
2022-11-08T22:48:26.241Z,8.20
2022-11-08T22:52:29.832Z,6.78
2022-11-08T22:56:33.519Z,5.55
2022-11-08T23:00:38.370Z,5.88
2022-11-08T23:04:41.997Z,6.40
2022-11-08T23:08:45.936Z,7.13
2022-11-08T23:13:06.229Z,5.97
2022-11-08T23:17:11.074Z,7.30
2022-11-08T23:21:31.929Z,6.97
2022-11-08T23:25:35.102Z,6.38
2022-11-08T23:29:55.756Z,5.70
2022-11-08T23:34:00.782Z,5.40
2022-11-08T23:38:03.732Z,5.93
2022-11-08T23:42:24.458Z,6.47
2022-11-08T23:46:28.023Z,5.78
2022-11-08T23:50:32.630Z,6.07
2022-11-08T23:54:36.092Z,7.32
2022-11-08T23:58:39.162Z,6.35
